sensor_id;sensor_type;location;lat;lon;timestamp;temperature;humidity
17452;DHT22;8843;48.838;9.324;2023-08-20T00:00:08;25.40;81.30
17452;DHT22;8843;48.838;9.324;2023-08-20T00:02:36;25.40;81.30
17452;DHT22;8843;48.838;9.324;2023-08-20T00:05:06;25.40;81.30
17452;DHT22;8843;48.838;9.324;2023-08-20T00:07:33;25.40;81.30
17452;DHT22;8843;48.838;9.324;2023-08-20T00:10:01;25.40;81.30
17452;DHT22;8843;48.838;9.324;2023-08-20T00:12:29;25.40;81.30
17452;DHT22;8843;48.838;9.324;2023-08-20T00:14:59;25.30;81.20
17452;DHT22;8843;48.838;9.324;2023-08-20T00:17:31;25.30;81.30
17452;DHT22;8843;48.838;9.324;2023-08-20T00:19:58;25.30;81.30
17452;DHT22;8843;48.838;9.324;2023-08-20T00:22:27;25.30;81.20
17452;DHT22;8843;48.838;9.324;2023-08-20T00:24:55;25.30;81.30
17452;DHT22;8843;48.838;9.324;2023-08-20T00:27:22;25.30;81.30
17452;DHT22;8843;48.838;9.324;2023-08-20T00:29:49;25.30;81.50
17452;DHT22;8843;48.838;9.324;2023-08-20T00:32:16;25.30;81.40
17452;DHT22;8843;48.838;9.324;2023-08-20T00:34:43;25.30;81.30
17452;DHT22;8843;48.838;9.324;2023-08-20T00:37:10;25.30;81.30
17452;DHT22;8843;48.838;9.324;2023-08-20T00:39:39;25.30;81.40
17452;DHT22;8843;48.838;9.324;2023-08-20T00:42:06;25.30;82.20
17452;DHT22;8843;48.838;9.324;2023-08-20T00:44:33;25.30;81.40
17452;DHT22;8843;48.838;9.324;2023-08-20T00:47:01;25.30;81.50
17452;DHT22;8843;48.838;9.324;2023-08-20T00:49:29;25.30;81.50
17452;DHT22;8843;48.838;9.324;2023-08-20T00:51:56;25.30;81.60
17452;DHT22;8843;48.838;9.324;2023-08-20T00:54:24;25.30;82.30
17452;DHT22;8843;48.838;9.324;2023-08-20T00:56:52;25.30;82.30
17452;DHT22;8843;48.838;9.324;2023-08-20T00:59:20;25.30;81.50
17452;DHT22;8843;48.838;9.324;2023-08-20T01:01:47;25.30;82.30
17452;DHT22;8843;48.838;9.324;2023-08-20T01:04:14;25.30;81.40
17452;DHT22;8843;48.838;9.324;2023-08-20T01:06:50;25.30;82.20
17452;DHT22;8843;48.838;9.324;2023-08-20T01:09:25;25.30;81.70
17452;DHT22;8843;48.838;9.324;2023-08-20T01:11:59;25.20;81.50
17452;DHT22;8843;48.838;9.324;2023-08-20T01:14:27;25.20;81.60
17452;DHT22;8843;48.838;9.324;2023-08-20T01:16:53;25.20;81.60
17452;DHT22;8843;48.838;9.324;2023-08-20T01:19:22;25.20;81.80
17452;DHT22;8843;48.838;9.324;2023-08-20T01:24:47;25.20;81.80
17452;DHT22;8843;48.838;9.324;2023-08-20T01:27:28;25.20;81.90
17452;DHT22;8843;48.838;9.324;2023-08-20T01:30:02;25.20;81.90
17452;DHT22;8843;48.838;9.324;2023-08-20T01:32:29;25.20;81.90
17452;DHT22;8843;48.838;9.324;2023-08-20T01:34:56;25.10;81.80
17452;DHT22;8843;48.838;9.324;2023-08-20T01:37:23;25.20;81.90
17452;DHT22;8843;48.838;9.324;2023-08-20T01:39:50;25.20;82.10
17452;DHT22;8843;48.838;9.324;2023-08-20T01:42:18;25.20;81.90
17452;DHT22;8843;48.838;9.324;2023-08-20T01:44:45;25.10;81.90
17452;DHT22;8843;48.838;9.324;2023-08-20T01:47:13;25.10;81.90
17452;DHT22;8843;48.838;9.324;2023-08-20T01:49:40;25.20;82.00
17452;DHT22;8843;48.838;9.324;2023-08-20T01:52:08;25.10;81.90
17452;DHT22;8843;48.838;9.324;2023-08-20T01:54:35;25.10;82.80
17452;DHT22;8843;48.838;9.324;2023-08-20T01:57:02;25.10;82.10
17452;DHT22;8843;48.838;9.324;2023-08-20T01:59:29;25.10;82.00
17452;DHT22;8843;48.838;9.324;2023-08-20T02:01:56;25.10;82.10
17452;DHT22;8843;48.838;9.324;2023-08-20T02:04:24;25.10;82.10
17452;DHT22;8843;48.838;9.324;2023-08-20T02:06:51;25.10;82.10
17452;DHT22;8843;48.838;9.324;2023-08-20T02:09:18;25.10;82.20
17452;DHT22;8843;48.838;9.324;2023-08-20T02:11:46;25.10;82.10
17452;DHT22;8843;48.838;9.324;2023-08-20T02:14:12;25.10;82.30
17452;DHT22;8843;48.838;9.324;2023-08-20T02:16:40;25.10;82.40
17452;DHT22;8843;48.838;9.324;2023-08-20T02:19:07;25.10;82.30
17452;DHT22;8843;48.838;9.324;2023-08-20T02:21:35;25.10;82.20
17452;DHT22;8843;48.838;9.324;2023-08-20T02:24:03;25.10;82.30
17452;DHT22;8843;48.838;9.324;2023-08-20T02:26:30;25.10;82.30
17452;DHT22;8843;48.838;9.324;2023-08-20T02:28:56;25.10;82.40
17452;DHT22;8843;48.838;9.324;2023-08-20T02:31:23;25.00;82.30
17452;DHT22;8843;48.838;9.324;2023-08-20T02:33:50;25.00;82.40
17452;DHT22;8843;48.838;9.324;2023-08-20T02:36:17;25.00;82.40
17452;DHT22;8843;48.838;9.324;2023-08-20T02:38:46;25.00;82.30
17452;DHT22;8843;48.838;9.324;2023-08-20T02:41:13;25.00;82.50
17452;DHT22;8843;48.838;9.324;2023-08-20T02:43:40;25.00;82.40
17452;DHT22;8843;48.838;9.324;2023-08-20T02:46:06;25.00;82.40
17452;DHT22;8843;48.838;9.324;2023-08-20T02:48:33;25.00;82.40
17452;DHT22;8843;48.838;9.324;2023-08-20T02:51:00;25.00;82.50
17452;DHT22;8843;48.838;9.324;2023-08-20T02:53:28;25.00;82.60
17452;DHT22;8843;48.838;9.324;2023-08-20T02:55:56;25.00;82.60
17452;DHT22;8843;48.838;9.324;2023-08-20T02:58:23;25.00;82.50
17452;DHT22;8843;48.838;9.324;2023-08-20T03:00:50;25.00;82.60
17452;DHT22;8843;48.838;9.324;2023-08-20T03:03:17;25.00;83.40
17452;DHT22;8843;48.838;9.324;2023-08-20T03:05:44;25.00;82.70
17452;DHT22;8843;48.838;9.324;2023-08-20T03:08:10;25.00;82.70
17452;DHT22;8843;48.838;9.324;2023-08-20T03:10:37;25.00;82.70
17452;DHT22;8843;48.838;9.324;2023-08-20T03:13:06;25.00;82.70
17452;DHT22;8843;48.838;9.324;2023-08-20T03:15:32;24.90;83.40
17452;DHT22;8843;48.838;9.324;2023-08-20T03:17:59;24.90;82.60
17452;DHT22;8843;48.838;9.324;2023-08-20T03:20:26;24.90;82.60
17452;DHT22;8843;48.838;9.324;2023-08-20T03:22:54;24.90;82.60
17452;DHT22;8843;48.838;9.324;2023-08-20T03:25:20;24.90;82.60
17452;DHT22;8843;48.838;9.324;2023-08-20T03:27:47;24.90;82.70
17452;DHT22;8843;48.838;9.324;2023-08-20T03:30:16;24.90;82.70
17452;DHT22;8843;48.838;9.324;2023-08-20T03:32:42;24.90;82.70
17452;DHT22;8843;48.838;9.324;2023-08-20T03:35:09;24.90;82.70
17452;DHT22;8843;48.838;9.324;2023-08-20T03:37:36;24.90;82.70
17452;DHT22;8843;48.838;9.324;2023-08-20T03:40:04;24.90;82.70
17452;DHT22;8843;48.838;9.324;2023-08-20T03:42:31;24.90;82.80
17452;DHT22;8843;48.838;9.324;2023-08-20T03:44:58;24.90;82.70
17452;DHT22;8843;48.838;9.324;2023-08-20T03:47:26;24.90;82.70
17452;DHT22;8843;48.838;9.324;2023-08-20T03:49:53;24.90;82.80
17452;DHT22;8843;48.838;9.324;2023-08-20T03:52:20;24.90;82.80
17452;DHT22;8843;48.838;9.324;2023-08-20T03:54:47;24.90;82.80
17452;DHT22;8843;48.838;9.324;2023-08-20T03:57:13;24.90;82.80
17452;DHT22;8843;48.838;9.324;2023-08-20T03:59:40;24.90;82.90
17452;DHT22;8843;48.838;9.324;2023-08-20T04:02:07;24.80;82.80
17452;DHT22;8843;48.838;9.324;2023-08-20T04:04:35;24.80;82.80
17452;DHT22;8843;48.838;9.324;2023-08-20T04:07:03;24.80;82.80
17452;DHT22;8843;48.838;9.324;2023-08-20T04:09:29;24.80;82.80
17452;DHT22;8843;48.838;9.324;2023-08-20T04:11:57;24.80;82.80
17452;DHT22;8843;48.838;9.324;2023-08-20T04:14:24;24.80;82.80
17452;DHT22;8843;48.838;9.324;2023-08-20T04:16:51;24.80;82.80
17452;DHT22;8843;48.838;9.324;2023-08-20T04:19:18;24.80;82.80
17452;DHT22;8843;48.838;9.324;2023-08-20T04:21:46;24.80;82.90
17452;DHT22;8843;48.838;9.324;2023-08-20T04:24:13;24.80;82.90
17452;DHT22;8843;48.838;9.324;2023-08-20T04:26:40;24.80;82.90
17452;DHT22;8843;48.838;9.324;2023-08-20T04:29:06;24.80;83.00
17452;DHT22;8843;48.838;9.324;2023-08-20T04:31:33;24.80;82.90
17452;DHT22;8843;48.838;9.324;2023-08-20T04:34:00;24.80;82.90
17452;DHT22;8843;48.838;9.324;2023-08-20T04:36:27;24.80;82.90
17452;DHT22;8843;48.838;9.324;2023-08-20T04:38:55;24.70;82.80
17452;DHT22;8843;48.838;9.324;2023-08-20T04:41:22;24.70;82.80
17452;DHT22;8843;48.838;9.324;2023-08-20T04:43:49;24.70;83.60
17452;DHT22;8843;48.838;9.324;2023-08-20T04:46:16;24.70;82.80
17452;DHT22;8843;48.838;9.324;2023-08-20T04:48:43;24.70;82.90
17452;DHT22;8843;48.838;9.324;2023-08-20T04:51:10;24.70;82.80
17452;DHT22;8843;48.838;9.324;2023-08-20T04:53:37;24.70;82.80
17452;DHT22;8843;48.838;9.324;2023-08-20T04:56:05;24.70;82.80
17452;DHT22;8843;48.838;9.324;2023-08-20T04:58:32;24.70;82.80
17452;DHT22;8843;48.838;9.324;2023-08-20T05:00:59;24.70;82.80
17452;DHT22;8843;48.838;9.324;2023-08-20T05:03:26;24.70;82.80
17452;DHT22;8843;48.838;9.324;2023-08-20T05:05:53;24.70;82.90
17452;DHT22;8843;48.838;9.324;2023-08-20T05:08:19;24.70;82.90
17452;DHT22;8843;48.838;9.324;2023-08-20T05:10:46;24.70;82.90
17452;DHT22;8843;48.838;9.324;2023-08-20T05:13:15;24.70;83.00
17452;DHT22;8843;48.838;9.324;2023-08-20T05:15:42;24.70;83.00
17452;DHT22;8843;48.838;9.324;2023-08-20T05:18:09;24.70;83.00
17452;DHT22;8843;48.838;9.324;2023-08-20T05:20:35;24.70;82.90
17452;DHT22;8843;48.838;9.324;2023-08-20T05:23:02;24.70;83.00
17452;DHT22;8843;48.838;9.324;2023-08-20T05:25:31;24.70;83.00
17452;DHT22;8843;48.838;9.324;2023-08-20T05:27:58;24.70;83.70
17452;DHT22;8843;48.838;9.324;2023-08-20T05:30:27;24.70;83.10
17452;DHT22;8843;48.838;9.324;2023-08-20T05:32:54;24.70;83.10
17452;DHT22;8843;48.838;9.324;2023-08-20T05:35:21;24.70;83.10
17452;DHT22;8843;48.838;9.324;2023-08-20T05:37:47;24.70;83.10
17452;DHT22;8843;48.838;9.324;2023-08-20T05:40:15;24.70;83.00
17452;DHT22;8843;48.838;9.324;2023-08-20T05:42:42;24.70;83.00
17452;DHT22;8843;48.838;9.324;2023-08-20T05:45:09;24.60;83.00
17452;DHT22;8843;48.838;9.324;2023-08-20T05:47:38;24.60;83.10
17452;DHT22;8843;48.838;9.324;2023-08-20T05:50:05;24.60;83.00
17452;DHT22;8843;48.838;9.324;2023-08-20T05:52:32;24.50;84.40
17452;DHT22;8843;48.838;9.324;2023-08-20T05:54:59;24.50;84.00
17452;DHT22;8843;48.838;9.324;2023-08-20T05:57:26;24.50;85.30
17452;DHT22;8843;48.838;9.324;2023-08-20T05:59:53;24.50;85.00
17452;DHT22;8843;48.838;9.324;2023-08-20T06:02:20;24.50;84.70
17452;DHT22;8843;48.838;9.324;2023-08-20T06:04:48;24.50;84.10
17452;DHT22;8843;48.838;9.324;2023-08-20T06:07:16;24.50;85.10
17452;DHT22;8843;48.838;9.324;2023-08-20T06:09:43;24.50;84.90
17452;DHT22;8843;48.838;9.324;2023-08-20T06:12:10;24.40;85.40
17452;DHT22;8843;48.838;9.324;2023-08-20T06:14:37;24.30;86.40
17452;DHT22;8843;48.838;9.324;2023-08-20T06:17:04;24.30;86.80
17452;DHT22;8843;48.838;9.324;2023-08-20T06:19:30;24.10;86.90
17452;DHT22;8843;48.838;9.324;2023-08-20T06:21:59;24.10;87.10
17452;DHT22;8843;48.838;9.324;2023-08-20T06:24:25;24.10;87.30
17452;DHT22;8843;48.838;9.324;2023-08-20T06:26:52;24.10;87.30
17452;DHT22;8843;48.838;9.324;2023-08-20T06:29:19;24.30;85.70
17452;DHT22;8843;48.838;9.324;2023-08-20T06:31:47;24.30;86.60
17452;DHT22;8843;48.838;9.324;2023-08-20T06:34:14;24.40;87.10
17452;DHT22;8843;48.838;9.324;2023-08-20T06:36:41;24.30;87.30
17452;DHT22;8843;48.838;9.324;2023-08-20T06:39:09;24.30;88.20
17452;DHT22;8843;48.838;9.324;2023-08-20T06:41:36;24.40;86.30
17452;DHT22;8843;48.838;9.324;2023-08-20T06:44:03;24.40;88.70
17452;DHT22;8843;48.838;9.324;2023-08-20T06:46:30;24.20;88.30
17452;DHT22;8843;48.838;9.324;2023-08-20T06:48:57;24.30;88.90
17452;DHT22;8843;48.838;9.324;2023-08-20T06:51:24;24.30;88.50
17452;DHT22;8843;48.838;9.324;2023-08-20T06:53:53;24.30;88.50
17452;DHT22;8843;48.838;9.324;2023-08-20T06:56:22;24.30;90.00
17452;DHT22;8843;48.838;9.324;2023-08-20T06:58:49;24.40;88.50
17452;DHT22;8843;48.838;9.324;2023-08-20T07:01:15;24.50;88.40
17452;DHT22;8843;48.838;9.324;2023-08-20T07:03:44;24.40;90.00
17452;DHT22;8843;48.838;9.324;2023-08-20T07:06:11;24.50;88.40
17452;DHT22;8843;48.838;9.324;2023-08-20T07:08:40;24.60;89.10
17452;DHT22;8843;48.838;9.324;2023-08-20T07:11:08;24.60;88.50
17452;DHT22;8843;48.838;9.324;2023-08-20T07:13:36;24.50;90.40
17452;DHT22;8843;48.838;9.324;2023-08-20T07:16:03;24.40;90.60
17452;DHT22;8843;48.838;9.324;2023-08-20T07:18:30;24.40;90.20
17452;DHT22;8843;48.838;9.324;2023-08-20T07:20:57;24.60;90.90
17452;DHT22;8843;48.838;9.324;2023-08-20T07:23:24;24.60;90.90
17452;DHT22;8843;48.838;9.324;2023-08-20T07:25:52;24.60;91.00
17452;DHT22;8843;48.838;9.324;2023-08-20T07:28:30;24.70;91.10
17452;DHT22;8843;48.838;9.324;2023-08-20T07:31:12;24.70;90.70
17452;DHT22;8843;48.838;9.324;2023-08-20T07:33:39;24.60;91.40
17452;DHT22;8843;48.838;9.324;2023-08-20T07:36:06;24.60;90.70
17452;DHT22;8843;48.838;9.324;2023-08-20T07:38:32;24.70;90.30
17452;DHT22;8843;48.838;9.324;2023-08-20T07:40:59;24.80;90.40
17452;DHT22;8843;48.838;9.324;2023-08-20T07:43:26;24.90;90.70
17452;DHT22;8843;48.838;9.324;2023-08-20T07:45:53;24.90;90.70
17452;DHT22;8843;48.838;9.324;2023-08-20T07:48:21;25.10;90.70
17452;DHT22;8843;48.838;9.324;2023-08-20T07:50:48;25.10;90.90
17452;DHT22;8843;48.838;9.324;2023-08-20T07:53:15;25.10;90.70
17452;DHT22;8843;48.838;9.324;2023-08-20T07:55:42;25.10;90.70
17452;DHT22;8843;48.838;9.324;2023-08-20T07:58:09;25.10;90.90
17452;DHT22;8843;48.838;9.324;2023-08-20T08:00:36;25.10;90.70
17452;DHT22;8843;48.838;9.324;2023-08-20T08:03:03;25.20;91.00
17452;DHT22;8843;48.838;9.324;2023-08-20T08:05:31;25.30;90.80
17452;DHT22;8843;48.838;9.324;2023-08-20T08:07:58;25.30;90.40
17452;DHT22;8843;48.838;9.324;2023-08-20T08:10:25;25.20;90.40
17452;DHT22;8843;48.838;9.324;2023-08-20T08:12:51;25.30;91.00
17452;DHT22;8843;48.838;9.324;2023-08-20T08:15:19;25.30;90.40
17452;DHT22;8843;48.838;9.324;2023-08-20T08:17:48;25.30;90.60
17452;DHT22;8843;48.838;9.324;2023-08-20T08:20:17;25.30;90.50
17452;DHT22;8843;48.838;9.324;2023-08-20T08:22:45;25.30;91.00
17452;DHT22;8843;48.838;9.324;2023-08-20T08:25:12;25.30;90.60
17452;DHT22;8843;48.838;9.324;2023-08-20T08:27:38;25.30;90.80
17452;DHT22;8843;48.838;9.324;2023-08-20T08:30:06;25.30;90.70
17452;DHT22;8843;48.838;9.324;2023-08-20T08:32:33;25.30;90.90
17452;DHT22;8843;48.838;9.324;2023-08-20T08:35:00;25.30;91.00
17452;DHT22;8843;48.838;9.324;2023-08-20T08:37:27;25.30;90.70
17452;DHT22;8843;48.838;9.324;2023-08-20T08:39:55;25.30;90.70
17452;DHT22;8843;48.838;9.324;2023-08-20T08:42:22;25.30;90.60
17452;DHT22;8843;48.838;9.324;2023-08-20T08:44:50;25.30;90.70
17452;DHT22;8843;48.838;9.324;2023-08-20T08:47:18;25.30;91.10
17452;DHT22;8843;48.838;9.324;2023-08-20T08:49:45;25.30;90.70
17452;DHT22;8843;48.838;9.324;2023-08-20T08:52:13;25.30;90.40
17452;DHT22;8843;48.838;9.324;2023-08-20T08:54:40;25.30;90.70
17452;DHT22;8843;48.838;9.324;2023-08-20T08:57:08;25.40;90.40
17452;DHT22;8843;48.838;9.324;2023-08-20T08:59:35;25.30;90.00
17452;DHT22;8843;48.838;9.324;2023-08-20T09:02:07;25.30;90.20
17452;DHT22;8843;48.838;9.324;2023-08-20T09:04:37;25.40;90.70
17452;DHT22;8843;48.838;9.324;2023-08-20T09:07:04;25.40;90.60
17452;DHT22;8843;48.838;9.324;2023-08-20T09:09:31;25.30;90.00
17452;DHT22;8843;48.838;9.324;2023-08-20T09:11:58;25.30;90.20
17452;DHT22;8843;48.838;9.324;2023-08-20T09:14:28;25.40;90.90
17452;DHT22;8843;48.838;9.324;2023-08-20T09:16:55;25.60;90.90
17452;DHT22;8843;48.838;9.324;2023-08-20T09:19:23;25.70;91.00
17452;DHT22;8843;48.838;9.324;2023-08-20T09:21:50;25.70;91.30
17452;DHT22;8843;48.838;9.324;2023-08-20T09:24:26;25.80;91.60
17452;DHT22;8843;48.838;9.324;2023-08-20T09:26:57;25.90;91.40
17452;DHT22;8843;48.838;9.324;2023-08-20T09:29:26;26.00;91.20
17452;DHT22;8843;48.838;9.324;2023-08-20T09:32:00;26.10;91.10
17452;DHT22;8843;48.838;9.324;2023-08-20T09:34:36;26.20;90.60
17452;DHT22;8843;48.838;9.324;2023-08-20T09:37:08;26.40;91.20
17452;DHT22;8843;48.838;9.324;2023-08-20T09:39:35;26.50;91.10
17452;DHT22;8843;48.838;9.324;2023-08-20T09:42:02;26.70;90.80
17452;DHT22;8843;48.838;9.324;2023-08-20T09:44:33;26.80;90.40
17452;DHT22;8843;48.838;9.324;2023-08-20T09:47:02;26.90;90.10
17452;DHT22;8843;48.838;9.324;2023-08-20T09:49:32;27.10;90.00
17452;DHT22;8843;48.838;9.324;2023-08-20T09:52:04;27.30;89.10
17452;DHT22;8843;48.838;9.324;2023-08-20T09:54:37;27.30;89.30
17452;DHT22;8843;48.838;9.324;2023-08-20T09:57:10;27.30;89.50
17452;DHT22;8843;48.838;9.324;2023-08-20T09:59:41;27.40;88.80
17452;DHT22;8843;48.838;9.324;2023-08-20T10:02:11;27.50;87.60
17452;DHT22;8843;48.838;9.324;2023-08-20T10:04:38;27.70;87.60
17452;DHT22;8843;48.838;9.324;2023-08-20T10:07:05;27.80;87.70
17452;DHT22;8843;48.838;9.324;2023-08-20T10:09:33;28.00;86.30
17452;DHT22;8843;48.838;9.324;2023-08-20T10:12:01;27.90;87.00
17452;DHT22;8843;48.838;9.324;2023-08-20T10:14:28;28.20;88.00
17452;DHT22;8843;48.838;9.324;2023-08-20T10:16:56;28.40;86.60
17452;DHT22;8843;48.838;9.324;2023-08-20T10:19:24;28.70;86.70
17452;DHT22;8843;48.838;9.324;2023-08-20T10:21:52;28.80;85.90
17452;DHT22;8843;48.838;9.324;2023-08-20T10:24:19;29.00;84.20
17452;DHT22;8843;48.838;9.324;2023-08-20T10:26:46;29.00;82.40
17452;DHT22;8843;48.838;9.324;2023-08-20T10:29:36;29.20;82.20
17452;DHT22;8843;48.838;9.324;2023-08-20T10:32:06;29.50;81.20
17452;DHT22;8843;48.838;9.324;2023-08-20T10:34:33;29.50;80.60
17452;DHT22;8843;48.838;9.324;2023-08-20T10:37:02;29.70;79.40
17452;DHT22;8843;48.838;9.324;2023-08-20T10:39:29;29.80;80.40
17452;DHT22;8843;48.838;9.324;2023-08-20T10:42:21;29.90;79.10
17452;DHT22;8843;48.838;9.324;2023-08-20T10:45:04;30.00;78.10
17452;DHT22;8843;48.838;9.324;2023-08-20T10:47:42;30.30;78.70
17452;DHT22;8843;48.838;9.324;2023-08-20T10:50:09;30.50;78.00
17452;DHT22;8843;48.838;9.324;2023-08-20T10:52:39;30.50;76.90
17452;DHT22;8843;48.838;9.324;2023-08-20T10:55:07;30.60;76.20
17452;DHT22;8843;48.838;9.324;2023-08-20T10:57:35;30.70;74.90
17452;DHT22;8843;48.838;9.324;2023-08-20T11:00:04;30.90;74.50
17452;DHT22;8843;48.838;9.324;2023-08-20T11:02:38;30.90;72.30
17452;DHT22;8843;48.838;9.324;2023-08-20T11:05:16;31.00;72.40
17452;DHT22;8843;48.838;9.324;2023-08-20T11:07:45;31.10;72.60
17452;DHT22;8843;48.838;9.324;2023-08-20T11:10:13;31.20;71.90
17452;DHT22;8843;48.838;9.324;2023-08-20T11:12:41;31.40;71.80
17452;DHT22;8843;48.838;9.324;2023-08-20T11:15:09;31.40;72.60
17452;DHT22;8843;48.838;9.324;2023-08-20T11:17:42;31.70;72.20
17452;DHT22;8843;48.838;9.324;2023-08-20T11:20:09;31.90;70.80
17452;DHT22;8843;48.838;9.324;2023-08-20T11:22:38;31.90;70.70
17452;DHT22;8843;48.838;9.324;2023-08-20T11:25:05;32.10;71.30
17452;DHT22;8843;48.838;9.324;2023-08-20T11:27:32;32.20;70.20
17452;DHT22;8843;48.838;9.324;2023-08-20T11:30:00;32.30;70.30
17452;DHT22;8843;48.838;9.324;2023-08-20T11:32:30;32.30;71.20
17452;DHT22;8843;48.838;9.324;2023-08-20T11:34:58;32.30;68.60
17452;DHT22;8843;48.838;9.324;2023-08-20T11:37:27;32.30;69.70
17452;DHT22;8843;48.838;9.324;2023-08-20T11:39:54;32.30;69.60
17452;DHT22;8843;48.838;9.324;2023-08-20T11:42:21;32.30;68.60
17452;DHT22;8843;48.838;9.324;2023-08-20T11:44:48;32.40;68.40
17452;DHT22;8843;48.838;9.324;2023-08-20T11:47:15;32.30;67.70
17452;DHT22;8843;48.838;9.324;2023-08-20T11:49:42;32.20;68.40
17452;DHT22;8843;48.838;9.324;2023-08-20T11:52:11;32.30;67.70
17452;DHT22;8843;48.838;9.324;2023-08-20T11:54:39;32.30;67.60
17452;DHT22;8843;48.838;9.324;2023-08-20T11:57:06;32.20;66.30
17452;DHT22;8843;48.838;9.324;2023-08-20T11:59:34;32.40;66.50
17452;DHT22;8843;48.838;9.324;2023-08-20T12:02:02;32.30;66.90
17452;DHT22;8843;48.838;9.324;2023-08-20T12:04:30;32.10;66.20
17452;DHT22;8843;48.838;9.324;2023-08-20T12:07:04;32.30;66.50
17452;DHT22;8843;48.838;9.324;2023-08-20T12:09:33;32.40;66.00
17452;DHT22;8843;48.838;9.324;2023-08-20T12:12:00;32.30;66.20
17452;DHT22;8843;48.838;9.324;2023-08-20T12:14:27;32.50;65.40
17452;DHT22;8843;48.838;9.324;2023-08-20T12:16:54;32.50;64.70
17452;DHT22;8843;48.838;9.324;2023-08-20T12:19:22;32.60;65.40
17452;DHT22;8843;48.838;9.324;2023-08-20T12:21:49;32.70;65.30
17452;DHT22;8843;48.838;9.324;2023-08-20T12:24:16;32.70;66.00
17452;DHT22;8843;48.838;9.324;2023-08-20T12:26:45;33.00;65.10
17452;DHT22;8843;48.838;9.324;2023-08-20T12:29:12;33.00;64.60
17452;DHT22;8843;48.838;9.324;2023-08-20T12:31:40;33.10;65.10
17452;DHT22;8843;48.838;9.324;2023-08-20T12:34:07;33.10;64.50
17452;DHT22;8843;48.838;9.324;2023-08-20T12:36:34;33.10;64.70
17452;DHT22;8843;48.838;9.324;2023-08-20T12:39:01;33.20;63.70
17452;DHT22;8843;48.838;9.324;2023-08-20T12:41:30;33.20;63.10
17452;DHT22;8843;48.838;9.324;2023-08-20T12:43:58;33.20;64.80
17452;DHT22;8843;48.838;9.324;2023-08-20T12:46:25;33.30;63.30
17452;DHT22;8843;48.838;9.324;2023-08-20T12:48:52;33.30;62.80
17452;DHT22;8843;48.838;9.324;2023-08-20T12:51:19;33.20;62.30
17452;DHT22;8843;48.838;9.324;2023-08-20T12:53:46;33.30;62.70
17452;DHT22;8843;48.838;9.324;2023-08-20T12:56:12;33.20;60.90
17452;DHT22;8843;48.838;9.324;2023-08-20T12:58:41;33.30;61.20
17452;DHT22;8843;48.838;9.324;2023-08-20T13:01:09;33.30;61.00
17452;DHT22;8843;48.838;9.324;2023-08-20T13:03:36;33.40;60.80
17452;DHT22;8843;48.838;9.324;2023-08-20T13:06:04;33.40;60.40
17452;DHT22;8843;48.838;9.324;2023-08-20T13:08:32;33.20;60.20
17452;DHT22;8843;48.838;9.324;2023-08-20T13:11:00;33.20;60.00
17452;DHT22;8843;48.838;9.324;2023-08-20T13:13:28;33.20;60.20
17452;DHT22;8843;48.838;9.324;2023-08-20T13:15:59;33.30;59.90
17452;DHT22;8843;48.838;9.324;2023-08-20T13:18:27;33.10;60.40
17452;DHT22;8843;48.838;9.324;2023-08-20T13:20:55;33.00;61.40
17452;DHT22;8843;48.838;9.324;2023-08-20T13:23:22;33.10;61.50
17452;DHT22;8843;48.838;9.324;2023-08-20T13:25:49;33.00;62.20
17452;DHT22;8843;48.838;9.324;2023-08-20T13:28:16;33.00;61.30
17452;DHT22;8843;48.838;9.324;2023-08-20T13:30:43;33.00;62.50
17452;DHT22;8843;48.838;9.324;2023-08-20T13:33:10;33.10;62.00
17452;DHT22;8843;48.838;9.324;2023-08-20T13:35:38;32.90;61.10
17452;DHT22;8843;48.838;9.324;2023-08-20T13:38:05;32.90;62.70
17452;DHT22;8843;48.838;9.324;2023-08-20T13:40:32;33.00;61.50
17452;DHT22;8843;48.838;9.324;2023-08-20T13:42:59;33.00;61.20
17452;DHT22;8843;48.838;9.324;2023-08-20T13:45:26;33.10;61.40
17452;DHT22;8843;48.838;9.324;2023-08-20T13:47:52;33.10;61.00
17452;DHT22;8843;48.838;9.324;2023-08-20T13:50:19;33.00;60.90
17452;DHT22;8843;48.838;9.324;2023-08-20T13:52:48;32.90;60.80
17452;DHT22;8843;48.838;9.324;2023-08-20T13:55:15;32.90;60.60
17452;DHT22;8843;48.838;9.324;2023-08-20T13:57:42;32.90;60.60
17452;DHT22;8843;48.838;9.324;2023-08-20T14:00:09;32.90;60.60
17452;DHT22;8843;48.838;9.324;2023-08-20T14:02:38;33.00;61.00
17452;DHT22;8843;48.838;9.324;2023-08-20T14:05:05;33.00;60.40
17452;DHT22;8843;48.838;9.324;2023-08-20T14:07:32;32.90;60.30
17452;DHT22;8843;48.838;9.324;2023-08-20T14:10:01;33.00;61.20
17452;DHT22;8843;48.838;9.324;2023-08-20T14:12:28;33.00;60.60
17452;DHT22;8843;48.838;9.324;2023-08-20T14:14:55;33.10;60.40
17452;DHT22;8843;48.838;9.324;2023-08-20T14:17:22;33.00;60.30
17452;DHT22;8843;48.838;9.324;2023-08-20T14:19:49;32.90;59.60
17452;DHT22;8843;48.838;9.324;2023-08-20T14:22:17;32.90;60.50
17452;DHT22;8843;48.838;9.324;2023-08-20T14:24:45;33.00;61.50
17452;DHT22;8843;48.838;9.324;2023-08-20T14:27:13;33.00;60.70
17452;DHT22;8843;48.838;9.324;2023-08-20T14:29:40;33.00;61.80
17452;DHT22;8843;48.838;9.324;2023-08-20T14:32:08;33.00;62.20
17452;DHT22;8843;48.838;9.324;2023-08-20T14:34:35;33.00;62.90
17452;DHT22;8843;48.838;9.324;2023-08-20T14:37:01;33.00;62.60
17452;DHT22;8843;48.838;9.324;2023-08-20T14:39:29;32.90;63.40
17452;DHT22;8843;48.838;9.324;2023-08-20T14:41:57;33.00;64.00
17452;DHT22;8843;48.838;9.324;2023-08-20T14:44:25;32.80;64.50
17452;DHT22;8843;48.838;9.324;2023-08-20T14:46:52;33.00;64.10
17452;DHT22;8843;48.838;9.324;2023-08-20T14:49:19;32.80;63.20
17452;DHT22;8843;48.838;9.324;2023-08-20T14:51:46;32.80;65.00
17452;DHT22;8843;48.838;9.324;2023-08-20T14:54:13;32.90;64.40
17452;DHT22;8843;48.838;9.324;2023-08-20T14:56:40;32.80;64.40
17452;DHT22;8843;48.838;9.324;2023-08-20T14:59:07;32.80;65.00
17452;DHT22;8843;48.838;9.324;2023-08-20T15:01:36;32.60;64.90
17452;DHT22;8843;48.838;9.324;2023-08-20T15:04:03;32.50;64.50
17452;DHT22;8843;48.838;9.324;2023-08-20T15:06:30;32.60;65.00
17452;DHT22;8843;48.838;9.324;2023-08-20T15:08:57;32.40;64.20
17452;DHT22;8843;48.838;9.324;2023-08-20T15:11:24;32.40;64.60
17452;DHT22;8843;48.838;9.324;2023-08-20T15:13:50;32.30;65.60
17452;DHT22;8843;48.838;9.324;2023-08-20T15:16:18;32.50;65.20
17452;DHT22;8843;48.838;9.324;2023-08-20T15:18:47;32.50;64.70
17452;DHT22;8843;48.838;9.324;2023-08-20T15:21:14;32.30;63.80
17452;DHT22;8843;48.838;9.324;2023-08-20T15:23:41;32.30;63.90
17452;DHT22;8843;48.838;9.324;2023-08-20T15:26:08;32.30;64.00
17452;DHT22;8843;48.838;9.324;2023-08-20T15:28:35;32.30;64.10
17452;DHT22;8843;48.838;9.324;2023-08-20T15:31:02;32.10;64.00
17452;DHT22;8843;48.838;9.324;2023-08-20T15:33:29;32.10;63.70
17452;DHT22;8843;48.838;9.324;2023-08-20T15:35:58;32.00;63.90
17452;DHT22;8843;48.838;9.324;2023-08-20T15:38:25;32.00;64.00
17452;DHT22;8843;48.838;9.324;2023-08-20T15:40:53;32.00;63.80
17452;DHT22;8843;48.838;9.324;2023-08-20T15:43:21;32.00;63.80
17452;DHT22;8843;48.838;9.324;2023-08-20T15:45:47;31.80;63.50
17452;DHT22;8843;48.838;9.324;2023-08-20T15:48:14;31.70;64.50
17452;DHT22;8843;48.838;9.324;2023-08-20T15:50:41;31.40;63.80